sensor_id;sensor_type;location;lat;lon;timestamp;P1;durP1;ratioP1;P2;durP2;ratioP2
71162;SDS011;58858;50.948;6.566;2023-03-03T00:01:53;44.85;;;24.60;;
71162;SDS011;58858;50.948;6.566;2023-03-03T00:11:54;48.63;;;26.35;;
71162;SDS011;58858;50.948;6.566;2023-03-03T00:21:57;45.55;;;26.90;;
71162;SDS011;58858;50.948;6.566;2023-03-03T00:32:03;48.55;;;26.98;;
71162;SDS011;58858;50.948;6.566;2023-03-03T00:42:26;49.38;;;27.33;;
71162;SDS011;58858;50.948;6.566;2023-03-03T00:52:27;58.28;;;29.05;;
71162;SDS011;58858;50.948;6.566;2023-03-03T01:02:29;60.00;;;32.15;;
71162;SDS011;58858;50.948;6.566;2023-03-03T01:12:30;61.58;;;34.35;;
71162;SDS011;58858;50.948;6.566;2023-03-03T01:22:33;64.95;;;33.33;;
71162;SDS011;58858;50.948;6.566;2023-03-03T01:32:34;68.80;;;36.75;;
71162;SDS011;58858;50.948;6.566;2023-03-03T01:42:36;84.85;;;40.40;;
71162;SDS011;58858;50.948;6.566;2023-03-03T01:52:38;85.22;;;37.33;;
71162;SDS011;58858;50.948;6.566;2023-03-03T02:02:44;88.82;;;42.50;;
71162;SDS011;58858;50.948;6.566;2023-03-03T02:23:54;91.35;;;41.70;;
71162;SDS011;58858;50.948;6.566;2023-03-03T02:33:47;87.70;;;40.08;;
71162;SDS011;58858;50.948;6.566;2023-03-03T02:44:23;79.18;;;38.75;;
71162;SDS011;58858;50.948;6.566;2023-03-03T02:54:19;88.03;;;41.13;;
71162;SDS011;58858;50.948;6.566;2023-03-03T03:04:23;86.35;;;42.30;;
71162;SDS011;58858;50.948;6.566;2023-03-03T03:14:26;89.00;;;41.35;;
71162;SDS011;58858;50.948;6.566;2023-03-03T03:24:28;81.75;;;39.80;;
71162;SDS011;58858;50.948;6.566;2023-03-03T03:34:35;84.97;;;38.92;;
71162;SDS011;58858;50.948;6.566;2023-03-03T03:44:39;81.40;;;39.47;;
71162;SDS011;58858;50.948;6.566;2023-03-03T03:54:40;82.68;;;37.42;;
71162;SDS011;58858;50.948;6.566;2023-03-03T04:04:42;80.25;;;38.33;;
71162;SDS011;58858;50.948;6.566;2023-03-03T04:14:43;86.32;;;41.10;;
71162;SDS011;58858;50.948;6.566;2023-03-03T04:24:45;75.72;;;38.30;;
71162;SDS011;58858;50.948;6.566;2023-03-03T04:44:51;72.53;;;35.13;;
71162;SDS011;58858;50.948;6.566;2023-03-03T04:54:52;79.20;;;38.17;;
71162;SDS011;58858;50.948;6.566;2023-03-03T05:04:53;84.65;;;39.67;;
71162;SDS011;58858;50.948;6.566;2023-03-03T05:14:54;81.88;;;39.95;;
71162;SDS011;58858;50.948;6.566;2023-03-03T05:24:56;81.32;;;35.70;;
71162;SDS011;58858;50.948;6.566;2023-03-03T05:34:57;88.25;;;41.13;;
71162;SDS011;58858;50.948;6.566;2023-03-03T05:44:58;95.80;;;44.35;;
71162;SDS011;58858;50.948;6.566;2023-03-03T05:54:59;97.20;;;44.58;;
71162;SDS011;58858;50.948;6.566;2023-03-03T06:05:00;83.85;;;39.97;;
71162;SDS011;58858;50.948;6.566;2023-03-03T06:15:01;90.45;;;38.28;;
71162;SDS011;58858;50.948;6.566;2023-03-03T06:25:02;86.93;;;40.05;;
71162;SDS011;58858;50.948;6.566;2023-03-03T06:35:04;75.55;;;36.90;;
71162;SDS011;58858;50.948;6.566;2023-03-03T06:45:05;93.07;;;40.95;;
71162;SDS011;58858;50.948;6.566;2023-03-03T06:55:11;76.47;;;37.22;;
71162;SDS011;58858;50.948;6.566;2023-03-03T07:05:14;88.55;;;37.47;;
71162;SDS011;58858;50.948;6.566;2023-03-03T07:25:30;93.95;;;39.53;;
71162;SDS011;58858;50.948;6.566;2023-03-03T07:45:40;80.75;;;33.80;;
71162;SDS011;58858;50.948;6.566;2023-03-03T07:55:43;77.05;;;33.90;;
71162;SDS011;58858;50.948;6.566;2023-03-03T08:05:49;82.63;;;32.10;;
71162;SDS011;58858;50.948;6.566;2023-03-03T08:26:01;78.93;;;33.75;;
71162;SDS011;58858;50.948;6.566;2023-03-03T08:36:02;83.60;;;37.30;;
71162;SDS011;58858;50.948;6.566;2023-03-03T08:46:04;72.13;;;34.00;;
71162;SDS011;58858;50.948;6.566;2023-03-03T08:56:06;59.28;;;25.98;;
71162;SDS011;58858;50.948;6.566;2023-03-03T09:06:09;73.03;;;31.42;;
71162;SDS011;58858;50.948;6.566;2023-03-03T09:16:14;58.28;;;28.63;;
71162;SDS011;58858;50.948;6.566;2023-03-03T09:36:29;80.63;;;36.38;;
71162;SDS011;58858;50.948;6.566;2023-03-03T09:46:41;73.22;;;32.90;;
71162;SDS011;58858;50.948;6.566;2023-03-03T09:57:00;52.08;;;24.15;;
71162;SDS011;58858;50.948;6.566;2023-03-03T10:28:02;56.42;;;26.63;;
71162;SDS011;58858;50.948;6.566;2023-03-03T11:08:55;58.17;;;27.63;;
71162;SDS011;58858;50.948;6.566;2023-03-03T11:19:11;62.17;;;30.10;;
71162;SDS011;58858;50.948;6.566;2023-03-03T11:29:26;55.20;;;26.27;;
71162;SDS011;58858;50.948;6.566;2023-03-03T11:39:35;62.00;;;30.35;;
71162;SDS011;58858;50.948;6.566;2023-03-03T11:49:42;53.70;;;28.80;;
71162;SDS011;58858;50.948;6.566;2023-03-03T12:00:04;62.72;;;31.80;;
71162;SDS011;58858;50.948;6.566;2023-03-03T12:10:27;57.17;;;26.90;;
71162;SDS011;58858;50.948;6.566;2023-03-03T12:51:30;61.55;;;31.05;;
71162;SDS011;58858;50.948;6.566;2023-03-03T13:01:57;58.33;;;31.83;;
71162;SDS011;58858;50.948;6.566;2023-03-03T13:33:07;57.03;;;27.52;;
71162;SDS011;58858;50.948;6.566;2023-03-03T14:35:12;78.40;;;39.97;;
71162;SDS011;58858;50.948;6.566;2023-03-03T14:45:29;84.85;;;41.03;;
71162;SDS011;58858;50.948;6.566;2023-03-03T14:55:39;75.78;;;39.65;;
71162;SDS011;58858;50.948;6.566;2023-03-03T15:05:51;62.60;;;35.00;;
71162;SDS011;58858;50.948;6.566;2023-03-03T15:47:33;78.78;;;42.40;;
71162;SDS011;58858;50.948;6.566;2023-03-03T16:18:51;89.95;;;48.22;;
71162;SDS011;58858;50.948;6.566;2023-03-03T16:39:25;83.20;;;44.78;;
71162;SDS011;58858;50.948;6.566;2023-03-03T16:49:47;93.00;;;47.25;;
71162;SDS011;58858;50.948;6.566;2023-03-03T17:00:02;83.25;;;44.42;;
71162;SDS011;58858;50.948;6.566;2023-03-03T17:41:08;102.35;;;54.38;;
71162;SDS011;58858;50.948;6.566;2023-03-03T17:51:34;97.60;;;49.42;;
71162;SDS011;58858;50.948;6.566;2023-03-03T18:22:24;84.65;;;45.22;;
71162;SDS011;58858;50.948;6.566;2023-03-03T18:42:54;102.50;;;51.90;;
71162;SDS011;58858;50.948;6.566;2023-03-03T18:53:06;87.00;;;45.00;;
71162;SDS011;58858;50.948;6.566;2023-03-03T19:03:34;105.75;;;51.20;;
71162;SDS011;58858;50.948;6.566;2023-03-03T19:13:40;102.47;;;50.97;;
71162;SDS011;58858;50.948;6.566;2023-03-03T19:23:52;100.57;;;50.03;;
71162;SDS011;58858;50.948;6.566;2023-03-03T20:35:53;110.05;;;53.83;;
71162;SDS011;58858;50.948;6.566;2023-03-03T20:56:21;107.05;;;50.17;;
71162;SDS011;58858;50.948;6.566;2023-03-03T21:06:39;109.20;;;50.55;;
71162;SDS011;58858;50.948;6.566;2023-03-03T21:16:41;95.47;;;48.50;;
71162;SDS011;58858;50.948;6.566;2023-03-03T21:36:47;107.68;;;49.97;;
71162;SDS011;58858;50.948;6.566;2023-03-03T21:46:49;100.53;;;48.70;;
71162;SDS011;58858;50.948;6.566;2023-03-03T21:56:50;87.65;;;43.70;;
71162;SDS011;58858;50.948;6.566;2023-03-03T22:06:51;79.53;;;39.65;;
71162;SDS011;58858;50.948;6.566;2023-03-03T22:16:52;56.42;;;27.25;;
71162;SDS011;58858;50.948;6.566;2023-03-03T22:26:53;51.28;;;24.88;;
71162;SDS011;58858;50.948;6.566;2023-03-03T22:36:54;46.80;;;24.10;;
71162;SDS011;58858;50.948;6.566;2023-03-03T22:46:55;48.22;;;22.55;;
71162;SDS011;58858;50.948;6.566;2023-03-03T22:56:56;46.88;;;24.52;;
71162;SDS011;58858;50.948;6.566;2023-03-03T23:06:58;45.72;;;22.20;;
71162;SDS011;58858;50.948;6.566;2023-03-03T23:17:00;50.92;;;24.65;;
71162;SDS011;58858;50.948;6.566;2023-03-03T23:27:01;46.90;;;23.10;;
71162;SDS011;58858;50.948;6.566;2023-03-03T23:37:03;44.13;;;21.23;;
71162;SDS011;58858;50.948;6.566;2023-03-03T23:47:04;46.47;;;22.45;;
71162;SDS011;58858;50.948;6.566;2023-03-03T23:57:06;51.30;;;24.65;;
